27. Mai 2022

Uhrzeit Code Wetter Temp. Sichtweite Wolkendecke Wind METAR/SPECI
2:33 pm
I
66 °F 3 mi 1.600 ft 240° 240° 5 kt METAR CYHU 271833Z AUTO 24005KT 190V260 3SM -RA BR FEW006 BKN016 OVC022 19/18 A2970 RMK PCPN 11.7MM PAST HR SLP061 DENSITY ALT 900FT
2:26 pm
I
66 °F 1½ mi 1.600 ft 240° 240° 11 kt METAR CYHU 271826Z AUTO 24011KT 190V260 1 1/2SM R24R/2800V5500FT/ +RA BR FEW006 OVC016 19/18 A2971 RMK PCPN 11.4MM PAST HR SLP064 DENSITY ALT 900FT
2:18 pm
M
68 °F 4 mi 1.600 ft 210° 210° 8 kt METAR CYHU 271818Z AUTO 21008KT 160V240 4SM +RA BR OVC016 20/18 A2971 RMK PCPN 3.6MM PAST HR SLP063 DENSITY ALT 900FT
2:00 pm
M
68 °F 9 mi 1.800 ft 170° 170° 8 kt METAR CYHU 271800Z AUTO 17008KT 9SM -RA BKN018 BKN024 OVC043 20/18 A2971 RMK PCPN 0.5MM PAST HR SLP062 DENSITY ALT 1000FT
1:43 pm
M
68 °F 7 mi 2.000 ft 170° 170° 7 kt METAR CYHU 271743Z AUTO 17007KT 7SM -RA FEW014 BKN020 BKN043 OVC055 20/19 A2971 RMK SLP064 DENSITY ALT 900FT
1:37 pm
M
68 °F 9 mi 1.800 ft 180° 180° 7 kt METAR CYHU 271737Z AUTO 18007KT 9SM SCT014 BKN018 OVC043 20/19 A2972 RMK SLP065 DENSITY ALT 1000FT
1:32 pm
V
68 °F 9 mi 4.300 ft 180° 180° 8 kt METAR CYHU 271732Z AUTO 18008KT 9SM SCT012 SCT018 OVC043 20/19 A2972 RMK SLP065 DENSITY ALT 900FT
1:23 pm
M
68 °F 7 mi 2.100 ft 180° 180° 9 kt METAR CYHU 271723Z AUTO 18009KT 7SM -RA SCT012 BKN021 OVC041 20/19 A2972 RMK SLP066 DENSITY ALT 900FT
1:12 pm
I
68 °F 3 mi 1.900 ft 180° 180° 10 kt METAR CYHU 271712Z AUTO 18010KT 3SM -RA BR FEW009 BKN019 BKN028 OVC041 20/19 A2972 RMK SLP066 DENSITY ALT 900FT
1:00 pm
M
66 °F 5 mi 2.000 ft 180° 180° 10 kt METAR CYHU 271700Z AUTO 18010KT 5SM -RA BR SCT012 BKN020 BKN032 OVC041 19/18 A2973 RMK SLP068 DENSITY ALT 900FT
12:53 pm
M
66 °F 5 mi 2.200 ft 180° 180° 10 kt METAR CYHU 271653Z AUTO 18010KT 5SM -RA BR FEW015 BKN022 BKN031 OVC041 19/18 A2973 RMK SLP068 DENSITY ALT 900FT
12:30 pm
M
66 °F 9 mi 2.500 ft 180° 180° 10 kt METAR CYHU 271630Z AUTO 18010KT 9SM -RA FEW019 BKN025 BKN034 OVC043 19/18 A2973 RMK SLP068 DENSITY ALT 800FT
12:00 pm
M
66 °F 8 mi 2.100 ft 180° 180° 10 kt METAR CYHU 271600Z AUTO 18010KT 8SM -RA BKN021 BKN025 OVC031 19/18 A2973 RMK PCPN 0.5MM PAST HR SLP071 DENSITY ALT 800FT
11:00 am
M
63 °F 6 mi 1.400 ft 180° 180° 10 - 15 kt METAR CYHU 271500Z AUTO 18010G15KT 6SM -RA BR BKN014 BKN020 OVC027 17/17 A2975 RMK PCPN 9.8MM PAST HR SLP077 DENSITY ALT 600FT
10:46 am
I
63 °F 3 mi 1.700 ft 180° 180° 11 - 17 kt METAR CYHU 271446Z AUTO 18011G17KT 3SM RA BR FEW007 SCT012 BKN017 OVC030 17/17 A2975 RMK PCPN 9.3MM PAST HR SLP078 DENSITY ALT 600FT
10:32 am
M
63 °F 5 mi 1.600 ft 180° 180° 13 - 18 kt METAR CYHU 271432Z AUTO 18013G18KT 5SM +RA BR FEW007 BKN016 OVC026 17/17 A2975 RMK PCPN 4.3MM PAST HR SLP078 DENSITY ALT 600FT
10:26 am
M
63 °F 4 mi 1.800 ft 180° 180° 13 kt METAR CYHU 271426Z AUTO 18013KT 4SM RA BR FEW007 OVC018 17/17 A2975 RMK PCPN 3.3MM PAST HR SLP078 DENSITY ALT 600FT
10:18 am
M
64 °F 5 mi 1.800 ft 180° 180° 11 kt METAR CYHU 271418Z AUTO 18011KT 5SM +RA BR FEW007 OVC018 18/17 A2976 RMK PCPN 1.8MM PAST HR SLP079 DENSITY ALT 600FT
10:16 am
M
64 °F 5 mi 1.800 ft 180° 180° 11 kt METAR CYHU 271416Z AUTO 18011KT 5SM +RA BR OVC018 18/17 A2976 RMK PCPN 1.2MM PAST HR SLP079 DENSITY ALT 600FT
10:14 am
M
64 °F 6 mi 1.800 ft 180° 180° 11 kt METAR CYHU 271414Z AUTO 18011KT 6SM +RA BR OVC018 18/17 A2976 RMK PCPN 1.0MM PAST HR SLP079 DENSITY ALT 600FT
10:00 am
M
64 °F 9 mi 2.000 ft 180° 180° 10 kt METAR CYHU 271400Z AUTO 18010KT 9SM -RA OVC020 18/17 A2976 RMK PCPN 0.5MM PAST HR SLP079 DENSITY ALT 700FT
9:00 am
M
64 °F 9 mi 2.400 ft 180° 180° 8 kt METAR CYHU 271300Z AUTO 18008KT 9SM -RA OVC024 18/16 A2977 RMK PCPN 0.5MM PAST HR SLP082 DENSITY ALT 600FT
8:35 am
M
63 °F 9 mi 2.400 ft 180° 180° 10 - 16 kt METAR CYHU 271235Z AUTO 18010G16KT 9SM -RA BKN024 OVC032 17/16 A2977 RMK SLP083 DENSITY ALT 600FT
8:26 am
M
63 °F 9 mi 2.400 ft 180° 180° 9 kt METAR CYHU 271226Z AUTO 18009KT 9SM BKN024 OVC029 17/16 A2977 RMK SLP083 DENSITY ALT 600FT
8:22 am
M
63 °F 9 mi 2.900 ft 180° 180° 10 - 15 kt METAR CYHU 271222Z AUTO 18010G15KT 9SM FEW019 OVC029 17/16 A2977 RMK SLP084 DENSITY ALT 600FT
8:12 am
V
63 °F 9 mi 3.000 ft 170° 170° 10 kt METAR CYHU 271212Z AUTO 17010KT 9SM -RA SCT019 OVC030 17/16 A2977 RMK SLP084 DENSITY ALT 500FT
8:08 am
V
63 °F 6 mi 3.000 ft 180° 180° 9 kt METAR CYHU 271208Z AUTO 18009KT 6SM -RA BR SCT019 OVC030 17/16 A2977 RMK SLP084 DENSITY ALT 500FT
7:59 am
M
63 °F 5 mi 1.900 ft 170° 170° 10 kt METAR CYHU 271159Z AUTO 17010KT 5SM -RA BR BKN019 OVC030 17/16 A2977 RMK PCPN 1.5MM PAST HR SLP084 DENSITY ALT 500FT
7:43 am
M
63 °F 5 mi 1.900 ft 170° 170° 9 kt METAR CYHU 271143Z AUTO 17009KT 5SM -RA BR OVC019 17/16 A2978 RMK PCPN 1.5MM PAST HR SLP085 DENSITY ALT 500FT
7:06 am
M
61 °F 6 mi 2.100 ft 180° 180° 10 kt METAR CYHU 271106Z AUTO 18010KT 6SM RA BR OVC021 16/16 A2979 RMK PCPN 0.5MM PAST HR SLP089 DENSITY ALT 500FT
6:58 am
M
61 °F 5 mi 2.100 ft 190° 190° 9 - 17 kt METAR CYHU 271058Z AUTO 19009G17KT 5SM +RA BR OVC021 16/15 A2979 RMK PCPN 2.8MM PAST HR SLP089 DENSITY ALT 500FT
6:41 am
M
61 °F 6 mi 2.100 ft 180° 180° 10 - 18 kt METAR CYHU 271041Z AUTO 18010G18KT 6SM RA BR OVC021 16/15 A2979 RMK PCPN 1.2MM PAST HR SLP089 DENSITY ALT 500FT
6:21 am
M
61 °F 5 mi 2.300 ft 180° 180° 11 - 16 kt METAR CYHU 271021Z AUTO 18011G16KT 5SM -RA BR OVC023 16/15 A2980 RMK SLP092 DENSITY ALT 500FT
6:17 am
M
61 °F 7 mi 2.300 ft 180° 180° 11 kt METAR CYHU 271017Z AUTO 18011KT 7SM -RA OVC023 16/15 A2979 RMK SLP091 DENSITY ALT 500FT
6:00 am
M
61 °F 8 mi 2.500 ft 170° 170° 9 - 15 kt METAR CYHU 271000Z AUTO 17009G15KT 8SM -RA OVC025 16/15 A2979 RMK PCPN 1.5MM PAST HR SLP091 DENSITY ALT 500FT
5:00 am
M
63 °F 9 mi 2.900 ft 180° 180° 11 - 16 kt METAR CYHU 270900Z AUTO 18011G16KT 9SM RA OVC029 17/15 A2980 RMK PCPN 0.5MM PAST HR SLP092 DENSITY ALT 500FT
4:25 am
V
64 °F 9 mi 3.500 ft 180° 180° 10 kt METAR CYHU 270825Z AUTO 18010KT 9SM -RA OVC035 18/14 A2980 RMK SLP092 DENSITY ALT 700FT
4:00 am
V
66 °F 9 mi 3.700 ft 180° 180° 10 kt METAR CYHU 270800Z AUTO 18010KT 9SM OVC037 19/13 A2980 RMK SLP093 DENSITY ALT 700FT
3:26 am
V
64 °F 9 mi 8.000 ft 180° 180° 12 kt METAR CYHU 270726Z AUTO 18012KT 9SM SCT060 BKN080 OVC094 18/14 A2980 RMK SLP093 DENSITY ALT 700FT
3:00 am
V
66 °F 9 mi 10.000 ft 180° 180° 13 kt METAR CYHU 270700Z AUTO 18013KT 9SM -RA SCT060 SCT074 OVC100 19/13 A2981 RMK SLP095 DENSITY ALT 700FT
2:47 am
V
66 °F 9 mi 10.000 ft 190° 190° 9 - 16 kt METAR CYHU 270647Z AUTO 19009G16KT 9SM -RA SCT071 OVC100 19/13 A2981 RMK SLP096 DENSITY ALT 800FT
2:00 am
V
66 °F 9 mi 8.700 ft 180° 180° 15 kt METAR CYHU 270600Z AUTO 18015KT 9SM SCT076 BKN087 OVC230 19/13 A2981 RMK SLP095 DENSITY ALT 800FT
1:00 am
V
68 °F 9 mi 11.000 ft 180° 180° 12 - 20 kt METAR CYHU 270500Z AUTO 18012G20KT 9SM BKN110 BKN140 OVC180 20/13 A2981 RMK SLP095 DENSITY ALT 900FT
12:04 am
V
68 °F 9 mi 7.300 ft 180° 180° 15 - 20 kt METAR CYHU 270404Z AUTO 18015G20KT 9SM SCT060 BKN073 BKN086 OVC110 20/12 A2981 RMK SLP098 DENSITY ALT 900FT

26. Mai 2022

Uhrzeit Code Wetter Temp. Sichtweite Wolkendecke Wind METAR/SPECI
11:00 pm
V
70 °F 9 mi 8.600 ft 180° 180° 14 - 21 kt METAR CYHU 270300Z AUTO 18014G21KT 9SM FEW066 OVC086 21/12 A2982 RMK SLP101 DENSITY ALT 900FT
10:00 pm
V
70 °F 9 mi 6.600 ft 180° 180° 13 - 18 kt METAR CYHU 270200Z AUTO 18013G18KT 9SM OVC066 21/12 A2984 RMK SLP106 DENSITY ALT 1000FT
9:00 pm
V
72 °F 9 mi 6.000 ft 180° 180° 12 - 18 kt METAR CYHU 270100Z AUTO 18012G18KT 9SM OVC060 22/11 A2984 RMK SLP106 DENSITY ALT 1000FT
8:00 pm
V
72 °F 9 mi 8.100 ft 180° 180° 12 - 17 kt METAR CYHU 270000Z AUTO 18012G17KT 9SM SCT060 BKN081 BKN140 22/11 A2983 RMK SLP105 DENSITY ALT 1100FT
7:00 pm
V
73 °F 9 mi 5.500 ft 190° 190° 10 kt METAR CYHU 262300Z AUTO 19010KT 9SM OVC055 23/10 A2985 RMK SLP110 DENSITY ALT 1200FT
6:00 pm
V
73 °F 9 mi 5.000 ft 180° 180° 10 - 20 kt METAR CYHU 262200Z AUTO 18010G20KT 9SM OVC050 23/09 A2987 RMK SLP116 DENSITY ALT 1100FT
5:00 pm
V
72 °F 9 mi 4.800 ft 180° 180° 10 - 15 kt METAR CYHU 262100Z AUTO 18010G15KT 9SM OVC048 22/08 A2989 RMK SLP124 DENSITY ALT 1000FT
4:32 pm
V
72 °F 9 mi 5.000 ft 180° 180° 11 - 17 kt METAR CYHU 262032Z AUTO 18011G17KT 9SM OVC050 22/09 A2990 RMK SLP128 DENSITY ALT 900FT
4:17 pm
V
72 °F 9 mi 5.500 ft 190° 190° 12 - 17 kt METAR CYHU 262017Z AUTO 19012G17KT 9SM -RA FEW043 OVC055 22/09 A2991 RMK SLP130 DENSITY ALT 1000FT
4:14 pm
V
72 °F 9 mi 5.500 ft 200° 200° 13 kt METAR CYHU 262014Z AUTO 20013KT 9SM OVC055 22/08 A2991 RMK SLP132 DENSITY ALT 1000FT
4:00 pm
V
72 °F 9 mi 6.000 ft 200° 200° 12 - 21 kt METAR CYHU 262000Z AUTO 20012G21KT 9SM -RA OVC060 22/10 A2992 RMK SLP133 DENSITY ALT 1000FT
3:59 pm
V
72 °F 9 mi 6.000 ft 200° 200° 14 - 21 kt METAR CYHU 261959Z AUTO 20014G21KT 9SM -RA OVC060 22/09 A2992 RMK SLP133 DENSITY ALT 1000FT
3:00 pm
V
75 °F 9 mi 6.000 ft 180° 180° 16 - 25 kt METAR CYHU 261900Z AUTO 18016G25KT 9SM OVC060 24/07 A2993 RMK SLP136 DENSITY ALT 1100FT
2:00 pm
V
77 °F 9 mi - 170° 170° 17 - 24 kt METAR CYHU 261800Z AUTO 17017G24KT 9SM CLR 25/09 A2994 RMK SLP142 DENSITY ALT 1200FT
1:00 pm
V
73 °F 9 mi - 180° 180° 16 - 23 kt METAR CYHU 261700Z AUTO 18016G23KT 9SM 23/09 A2999 RMK CLD MISG SLP157 DENSITY ALT 1000FT
12:00 pm
V
68 °F 9 mi 11.000 ft 180° 180° 16 - 24 kt METAR CYHU 261600Z AUTO 18016G24KT 9SM OVC110 20/08 A3003 RMK SLP170 DENSITY ALT 600FT
11:00 am
V
63 °F 9 mi 8.100 ft 170° 170° 13 - 21 kt METAR CYHU 261500Z AUTO 17013G21KT 9SM OVC081 17/08 A3006 RMK SLP181 DENSITY ALT 200FT
9:26 am
V
61 °F 9 mi 5.500 ft 170° 170° 9 kt METAR CYHU 261326Z AUTO 17009KT 9SM OVC055 16/11 A3011 RMK SLP200
9:00 am
V
61 °F 9 mi 5.500 ft 180° 180° 13 - 19 kt METAR CYHU 261300Z AUTO 18013G19KT 9SM -RA BKN055 OVC070 16/12 A3012 RMK SLP202
8:24 am
V
61 °F 9 mi 7.600 ft 170° 170° 10 kt METAR CYHU 261224Z AUTO 17010KT 9SM -RA OVC076 16/12 A3013 RMK PRESFR SLP207 DENSITY ALT 100FT
8:00 am
V
61 °F 9 mi 7.800 ft 180° 180° 8 kt METAR CYHU 261200Z AUTO 18008KT 9SM SCT050 SCT066 OVC078 16/12 A3015 RMK SLP213
7:50 am
V
61 °F 9 mi 5.000 ft 170° 170° 7 kt METAR CYHU 261150Z AUTO 17007KT 9SM BKN050 OVC066 16/12 A3015 RMK SLP214
7:00 am
V
61 °F 9 mi 5.500 ft 190° 190° 6 kt METAR CYHU 261100Z AUTO 19006KT 9SM -RA OVC055 16/12 A3018 RMK SLP220
6:22 am
V
61 °F 9 mi 6.600 ft 180° 180° 8 kt METAR CYHU 261022Z AUTO 18008KT 9SM -RA BKN066 BKN080 OVC097 16/11 A3017 RMK SLP218
6:00 am
V
61 °F 9 mi 6.000 ft 130° 130° 7 kt METAR CYHU 261000Z AUTO 13007KT 9SM BKN060 OVC081 16/11 A3015 RMK SLP213
5:40 am
V
59 °F 9 mi 6.000 ft 140° 140° 3 kt METAR CYHU 260940Z AUTO 14003KT 9SM BKN060 OVC100 15/11 A3016 RMK SLP216
5:00 am
V
59 °F 9 mi 6.000 ft 130° 130° 3 kt METAR CYHU 260900Z AUTO 13003KT 9SM -RA BKN060 BKN078 OVC095 15/10 A3016 RMK SLP215
4:05 am
V
61 °F 9 mi 9.200 ft 180° 180° 6 kt METAR CYHU 260805Z AUTO 18006KT 9SM -RA SCT081 OVC092 16/09 A3016 RMK SLP217
4:02 am
V
61 °F 9 mi 9.400 ft 170° 170° 6 kt METAR CYHU 260802Z AUTO 17006KT 9SM SCT081 OVC094 16/08 A3016 RMK SLP217
3:51 am
V
61 °F 9 mi 9.800 ft 150° 150° 5 kt METAR CYHU 260751Z AUTO 15005KT 9SM -RA SCT076 OVC098 16/08 A3016 RMK SLP216
3:34 am
V
61 °F 9 mi 9.600 ft 130° 130° 5 kt METAR CYHU 260734Z AUTO 13005KT 9SM -RA SCT076 OVC096 16/08 A3016 RMK SLP217
3:00 am
V
61 °F 9 mi 11.000 ft 150° 150° 5 kt METAR CYHU 260700Z AUTO 15005KT 9SM OVC110 16/07 A3017 RMK SLP219
2:00 am
V
61 °F 9 mi 13.000 ft 120° 120° 6 kt METAR CYHU 260600Z AUTO 12006KT 9SM BKN130 BKN150 OVC170 16/06 A3017 RMK SLP219
1:00 am
V
61 °F 9 mi 8.100 ft 110° 110° 5 kt METAR CYHU 260500Z AUTO 11005KT 9SM BKN081 OVC150 16/06 A3020 RMK SLP229
12:00 am
V
59 °F 9 mi 14.000 ft Var 000° 0 kt METAR CYHU 260400Z AUTO 00000KT 9SM BKN140 BKN160 15/06 A3022 RMK SLP235

25. Mai 2022

Uhrzeit Code Wetter Temp. Sichtweite Wolkendecke Wind METAR/SPECI
11:00 pm
V
61 °F 9 mi 17.000 ft Var Var 2 kt METAR CYHU 260300Z AUTO VRB02KT 9SM SCT140 BKN170 16/05 A3023 RMK SLP240
10:00 pm
V
63 °F 9 mi 15.000 ft Var Var 2 kt METAR CYHU 260200Z AUTO VRB02KT 9SM BKN150 17/05 A3023 RMK SLP241
9:00 pm
V
66 °F 9 mi - 180° 180° 5 kt METAR CYHU 260100Z AUTO 18005KT 9SM CLR 19/04 A3024 RMK SLP243 DENSITY ALT 300FT
8:00 pm
V
68 °F 9 mi - 160° 160° 4 kt METAR CYHU 260000Z AUTO 16004KT 9SM CLR 20/04 A3024 RMK SLP244 DENSITY ALT 400FT
7:00 pm
V
72 °F 9 mi - 090° 090° 6 kt METAR CYHU 252300Z AUTO 09006KT 9SM CLR 22/03 A3024 RMK SLP244 DENSITY ALT 600FT
6:00 pm
V
73 °F 9 mi - 130° 130° 3 kt METAR CYHU 252200Z AUTO 13003KT 040V170 9SM CLR 23/02 A3025 RMK SLP247 DENSITY ALT 700FT
5:00 pm
V
73 °F 9 mi - 350° 350° 3 kt METAR CYHU 252100Z AUTO 35003KT 290V080 9SM CLR 23/02 A3026 RMK SLP249 DENSITY ALT 700FT
4:00 pm
V
73 °F 9 mi - 090° 090° 5 kt METAR CYHU 252000Z AUTO 09005KT 060V230 9SM CLR 23/02 A3028 RMK SLP257 DENSITY ALT 700FT
3:00 pm
V
73 °F 9 mi - Var Var 3 kt METAR CYHU 251900Z AUTO VRB03KT 9SM CLR 23/03 A3031 RMK SLP265 DENSITY ALT 600FT
2:00 pm
V
70 °F 9 mi - Var Var 2 kt METAR CYHU 251800Z AUTO VRB02KT 9SM CLR 21/02 A3032 RMK SLP269 DENSITY ALT 400FT
1:00 pm
V
70 °F 9 mi - Var Var 6 kt METAR CYHU 251700Z AUTO VRB06KT 9SM CLR 21/02 A3034 RMK SLP276 DENSITY ALT 400FT
12:00 pm
V
70 °F 9 mi - Var Var 5 kt METAR CYHU 251600Z AUTO VRB05KT 9SM CLR 21/03 A3036 RMK SLP282 DENSITY ALT 400FT
11:00 am
V
68 °F 9 mi - Var Var 2 kt METAR CYHU 251500Z AUTO VRB02KT 9SM CLR 20/03 A3037 RMK SLP288 DENSITY ALT 200FT
Ältere Daten

Laden Sie unsere App herunter

Einfacher Zugriff auf das gesamte Flugwetter auf Ihrem Mobiltelefon und Tablet.
Mit vielen Funktionen, die auf der Website nicht verfügbar sind, wie Offline-Unterstützung und eine persönliche Flughafenliste.

Wir und Dritte verfolgen dein Internetverhalten auf unserer Website mit Cookies. Wenn du fortfährst, gehen wir davon aus, dass du mit unserer Cookie-Richtlinie einverstanden bist. Mehr erfahren